EDT,Max TemperatureF,Mean TemperatureF,Min TemperatureF,Max Dew PointF,MeanDew PointF,Min DewpointF,Max Humidity, Mean Humidity, Min Humidity, Max Sea Level PressureIn, Mean Sea Level PressureIn, Min Sea Level PressureIn, Max VisibilityMiles, Mean VisibilityMiles, Min VisibilityMiles, Max Wind SpeedMPH, Mean Wind SpeedMPH, Max Gust SpeedMPH,PrecipitationIn, CloudCover, Events, WindDirDegrees
2013-9-1,89,80,71,82,75,70,100,83,55,29.97,29.92,29.87,10,7,0,10,3,17,0.00,1,Fog-Thunderstorm,249
2013-9-2,87,79,71,79,73,68,100,82,55,29.97,29.91,29.87,10,9,7,12,5,24,0.00,0,,265
2013-9-3,91,81,71,81,74,70,100,84,49,29.99,29.92,29.88,10,10,7,10,5,17,0.00,0,Thunderstorm,256
2013-9-4,89,78,68,81,72,61,100,79,40,30.10,30.04,29.97,10,8,0,5,2,,0.00,1,Fog,293
2013-9-5,89,78,68,81,72,63,100,81,40,30.14,30.10,30.06,10,8,0,5,0,,0.00,0,Fog,29
2013-9-6,86,77,68,75,68,63,100,79,45,30.17,30.12,30.07,10,9,1,8,2,,0.00,1,,49
2013-9-7,86,74,62,73,66,61,100,79,43,30.14,30.08,30.02,10,10,7,5,1,,0.00,0,,25
2013-9-8,89,78,66,77,68,59,100,77,36,30.03,29.99,29.94,10,10,7,6,1,,0.00,0,,291
2013-9-9,89,78,68,75,69,61,100,75,38,30.14,30.07,30.01,10,10,7,9,2,,0.00,0,,75
2013-9-10,89,78,68,77,70,61,100,78,38,30.26,30.20,30.14,10,9,2,7,2,16,0.00,1,,95
2013-9-11,89,78,66,75,67,54,100,75,29,30.24,30.18,30.11,10,9,3,9,1,,0.00,0,,111
2013-9-12,89,78,68,77,71,64,100,84,43,30.11,30.02,29.91,10,10,7,12,4,,0.00,0,Rain,251
2013-9-13,89,79,69,75,66,50,100,68,26,29.91,29.86,29.80,10,10,7,12,6,16,0.00,0,,308
2013-9-14,82,71,60,64,57,52,83,62,45,30.10,29.99,29.90,10,10,10,10,5,17,0.00,0,,46
2013-9-15,86,74,62,77,68,63,100,83,48,30.19,30.13,30.09,10,10,7,7,3,,0.00,1,,68
2013-9-16,89,78,68,79,70,63,100,83,43,30.15,30.11,30.05,10,8,1,7,1,,0.00,2,,351
2013-9-17,80,74,68,70,64,61,100,75,51,30.27,30.20,30.12,10,10,10,12,6,18,0.00,2,,56
2013-9-18,80,71,62,64,61,57,100,77,45,30.27,30.21,30.16,10,10,10,10,4,,0.00,1,,62
2013-9-19,86,72,59,73,62,59,100,77,40,30.21,30.15,30.10,10,10,7,5,1,,0.00,0,,100
2013-9-20,86,74,62,72,65,61,100,76,43,30.10,30.04,29.95,10,10,10,7,1,,0.00,0,,238
2013-9-21,80,72,64,77,70,64,100,96,74,29.96,29.83,29.72,10,9,2,10,4,17,0.00,2,Rain,198
2013-9-22,82,72,62,73,62,54,100,74,37,29.89,29.82,29.76,10,8,0,10,1,,0.00,2,Fog,38
2013-9-23,80,70,59,64,61,54,100,79,39,30.05,29.99,29.90,10,10,10,7,2,,0.00,0,,70
2013-9-24,75,68,62,70,65,63,100,95,73,30.07,30.01,29.92,10,8,2,6,2,,0.00,5,Rain,70
2013-9-25,69,66,62,68,66,63,100,99,94,29.93,29.88,29.84,10,5,2,8,4,,0.00,7,Rain,53
2013-9-26,77,70,62,68,64,61,100,81,57,30.03,29.95,29.88,10,8,4,8,3,,0.00,4,,29
2013-9-27,80,66,53,63,58,52,100,79,37,30.16,30.09,30.03,10,10,7,10,4,17,0.00,0,,44
2013-9-28,75,64,53,61,56,54,100,77,47,30.24,30.17,30.14,10,10,10,12,4,17,0.00,1,,51
2013-9-29,77,68,59,63,58,54,100,82,44,30.17,30.11,30.04,10,10,10,6,3,,0.00,3,,39
2013-9-30,77,65,53,66,58,54,100,83,47,30.11,30.07,30.02,10,10,7,5,1,,0.00,0,,32